createdAt,value
2023-02-18T00:00:36.212Z,10.60
2023-02-18T00:03:04.030Z,10.63
2023-02-18T00:05:31.846Z,10.66
2023-02-18T00:07:59.685Z,10.67
2023-02-18T00:10:27.474Z,10.69
2023-02-18T00:12:55.336Z,10.70
2023-02-18T00:15:23.183Z,10.71
2023-02-18T00:17:50.942Z,10.69
2023-02-18T00:20:18.785Z,10.70
2023-02-18T00:22:46.712Z,10.69
2023-02-18T00:25:14.494Z,10.67
2023-02-18T00:27:42.427Z,10.66
2023-02-18T00:30:10.623Z,10.65
2023-02-18T00:32:38.504Z,10.65
2023-02-18T00:35:06.695Z,10.63
2023-02-18T00:37:35.494Z,10.63
2023-02-18T00:40:03.371Z,10.61
2023-02-18T00:42:31.329Z,10.58
2023-02-18T00:44:59.230Z,10.56
2023-02-18T00:47:27.014Z,10.56
2023-02-18T00:49:54.876Z,10.55
2023-02-18T00:52:22.641Z,10.55
2023-02-18T00:54:50.560Z,10.55
2023-02-18T00:57:18.384Z,10.53
2023-02-18T00:59:46.317Z,10.54
2023-02-18T01:02:14.100Z,10.55
2023-02-18T01:04:41.933Z,10.56
2023-02-18T01:07:11.502Z,10.56
2023-02-18T01:09:39.460Z,10.59
2023-02-18T01:12:07.634Z,10.61
2023-02-18T01:14:35.480Z,10.61
2023-02-18T01:17:03.269Z,10.61
2023-02-18T01:19:31.108Z,10.63
2023-02-18T01:21:58.933Z,10.64
2023-02-18T01:24:26.742Z,10.64
2023-02-18T01:26:54.521Z,10.63
2023-02-18T01:29:22.401Z,10.62
2023-02-18T01:31:50.361Z,10.62
2023-02-18T01:34:18.392Z,10.63
2023-02-18T01:36:46.318Z,10.60
2023-02-18T01:39:14.137Z,10.57
2023-02-18T01:41:41.950Z,10.58
2023-02-18T01:44:24.100Z,10.57
2023-02-18T01:46:52.137Z,10.57
2023-02-18T01:49:22.636Z,10.54
2023-02-18T01:51:53.475Z,10.53
2023-02-18T01:54:31.356Z,10.52
2023-02-18T01:57:03.088Z,10.49
2023-02-18T01:59:33.699Z,10.46
2023-02-18T02:02:01.668Z,10.43
2023-02-18T02:04:29.571Z,10.41
2023-02-18T02:06:57.352Z,10.41
2023-02-18T02:09:26.072Z,10.43
2023-02-18T02:12:15.697Z,10.43
2023-02-18T02:15:17.535Z,10.46
2023-02-18T02:18:04.021Z,10.42
2023-02-18T02:21:15.882Z,10.43
2023-02-18T02:23:55.756Z,10.46
2023-02-18T02:26:41.105Z,10.49
2023-02-18T02:29:24.690Z,10.49
2023-02-18T02:32:15.347Z,10.48
2023-02-18T02:34:45.098Z,10.49
2023-02-18T02:37:17.288Z,10.51
2023-02-18T02:39:55.333Z,10.50
2023-02-18T02:42:47.327Z,10.50
2023-02-18T02:45:37.678Z,10.52
2023-02-18T02:48:15.349Z,10.52
2023-02-18T02:50:49.032Z,10.53
2023-02-18T02:53:25.805Z,10.55
2023-02-18T02:55:53.534Z,10.56
2023-02-18T02:58:21.397Z,10.55
2023-02-18T03:00:58.622Z,10.56
2023-02-18T03:03:49.639Z,10.56
2023-02-18T03:06:42.112Z,10.60
2023-02-18T03:09:23.373Z,10.60
2023-02-18T03:12:20.574Z,10.62
2023-02-18T03:15:06.501Z,10.64
2023-02-18T03:17:38.624Z,10.64
2023-02-18T03:20:12.185Z,10.64
2023-02-18T03:22:42.801Z,10.63
2023-02-18T03:25:10.513Z,10.64
2023-02-18T03:27:42.440Z,10.65
2023-02-18T03:30:13.310Z,10.66
2023-02-18T03:32:41.098Z,10.67
2023-02-18T03:35:11.448Z,10.68
2023-02-18T03:37:41.856Z,10.68
2023-02-18T03:40:10.450Z,10.68
2023-02-18T03:42:38.284Z,10.71
2023-02-18T03:45:06.353Z,10.70
2023-02-18T03:47:34.356Z,10.70
2023-02-18T03:50:02.321Z,10.70
2023-02-18T03:52:30.281Z,10.71
2023-02-18T03:54:58.154Z,10.71
2023-02-18T03:57:26.008Z,10.71
2023-02-18T03:59:54.029Z,10.71
2023-02-18T04:02:21.810Z,10.70
2023-02-18T04:04:49.770Z,10.72
2023-02-18T04:07:17.519Z,10.71
2023-02-18T04:09:45.539Z,10.73
2023-02-18T04:12:13.319Z,10.74
2023-02-18T04:14:41.268Z,10.73
2023-02-18T04:17:09.124Z,10.73
2023-02-18T04:19:37.059Z,10.73
2023-02-18T04:22:04.830Z,10.73
2023-02-18T04:24:32.633Z,10.72
2023-02-18T04:27:00.627Z,10.72
2023-02-18T04:29:28.508Z,10.72
2023-02-18T04:31:56.402Z,10.71
2023-02-18T04:34:24.206Z,10.70
2023-02-18T04:36:52.163Z,10.71
2023-02-18T04:39:19.923Z,10.70
2023-02-18T04:41:47.704Z,10.70
2023-02-18T04:44:15.454Z,10.66
2023-02-18T04:46:43.410Z,10.67
2023-02-18T04:49:11.229Z,10.66
2023-02-18T04:51:39.097Z,10.64
2023-02-18T04:54:06.986Z,10.63
2023-02-18T04:56:34.810Z,10.62
2023-02-18T04:59:02.742Z,10.62
2023-02-18T05:01:30.577Z,10.62
2023-02-18T05:03:58.546Z,10.63
2023-02-18T05:06:26.356Z,10.64
2023-02-18T05:08:54.127Z,10.63
2023-02-18T05:11:22.085Z,10.63
2023-02-18T05:13:49.969Z,10.63
2023-02-18T05:16:17.838Z,10.63
2023-02-18T05:18:45.699Z,10.61
2023-02-18T05:21:13.579Z,10.61
2023-02-18T05:23:41.433Z,10.62
2023-02-18T05:26:09.459Z,10.63
2023-02-18T05:28:37.691Z,10.62
2023-02-18T05:31:05.790Z,10.61
2023-02-18T05:33:33.735Z,10.61
2023-02-18T05:36:01.514Z,10.62
2023-02-18T05:38:29.340Z,10.62
2023-02-18T05:40:57.233Z,10.61
2023-02-18T05:43:25.013Z,10.63
2023-02-18T05:45:52.802Z,10.62
2023-02-18T05:48:20.495Z,10.61
2023-02-18T05:50:48.293Z,10.62
2023-02-18T05:53:17.635Z,10.60
2023-02-18T05:55:45.637Z,10.61
2023-02-18T05:58:14.789Z,10.59
2023-02-18T06:00:42.667Z,10.60
2023-02-18T06:03:10.451Z,10.58
2023-02-18T06:05:38.328Z,10.55
2023-02-18T06:08:06.452Z,10.52
2023-02-18T06:10:34.236Z,10.52
2023-02-18T06:13:03.550Z,10.50
2023-02-18T06:15:31.359Z,10.48
2023-02-18T06:17:59.185Z,10.46
2023-02-18T06:20:27.038Z,10.43
2023-02-18T06:22:54.842Z,10.42
2023-02-18T06:25:22.551Z,10.42
2023-02-18T06:27:50.465Z,10.43
2023-02-18T06:30:18.453Z,10.41
2023-02-18T06:32:46.236Z,10.39
2023-02-18T06:35:14.153Z,10.37
2023-02-18T06:37:41.968Z,10.38
2023-02-18T06:40:10.457Z,10.37
2023-02-18T06:42:38.214Z,10.38
2023-02-18T06:45:07.873Z,10.39
2023-02-18T06:47:35.724Z,10.40
2023-02-18T06:50:03.680Z,10.39
2023-02-18T06:52:32.471Z,10.42
2023-02-18T06:55:00.410Z,10.41
2023-02-18T06:57:28.228Z,10.42
2023-02-18T06:59:56.054Z,10.41
2023-02-18T07:02:23.995Z,10.41
2023-02-18T07:04:51.969Z,10.40
2023-02-18T07:07:19.761Z,10.40
2023-02-18T07:09:47.733Z,10.40
2023-02-18T07:12:15.608Z,10.41
2023-02-18T07:14:43.401Z,10.42
2023-02-18T07:17:11.268Z,10.42
2023-02-18T07:19:39.120Z,10.43
2023-02-18T07:22:06.929Z,10.45
2023-02-18T07:24:34.714Z,10.47
2023-02-18T07:27:02.617Z,10.50
2023-02-18T07:29:30.397Z,10.53
2023-02-18T07:31:58.192Z,10.58
2023-02-18T07:34:26.110Z,10.66
2023-02-18T07:36:53.888Z,10.75
2023-02-18T07:39:21.911Z,10.82
2023-02-18T07:41:49.882Z,10.92
2023-02-18T07:44:17.810Z,11.00
2023-02-18T07:46:47.462Z,11.07
2023-02-18T07:49:16.286Z,11.10
2023-02-18T07:51:44.177Z,11.13
2023-02-18T07:54:11.916Z,11.15
2023-02-18T07:56:39.837Z,11.19
2023-02-18T07:59:07.972Z,11.27
2023-02-18T08:01:35.790Z,11.32
2023-02-18T08:04:03.936Z,11.42
2023-02-18T08:06:49.152Z,11.79
2023-02-18T08:09:17.448Z,11.97
2023-02-18T08:11:45.523Z,12.10
2023-02-18T08:14:13.436Z,12.14
2023-02-18T08:16:41.334Z,12.07
2023-02-18T08:19:09.735Z,11.96
2023-02-18T08:21:37.774Z,11.89
2023-02-18T08:24:05.726Z,11.86
2023-02-18T08:26:33.516Z,11.87
2023-02-18T08:29:01.379Z,11.83
2023-02-18T08:31:30.329Z,11.84
2023-02-18T08:33:58.881Z,11.88
2023-02-18T08:36:26.682Z,11.89
2023-02-18T08:38:54.511Z,11.94
2023-02-18T08:41:22.347Z,12.00
2023-02-18T08:43:50.429Z,11.99
2023-02-18T08:46:33.601Z,12.01
2023-02-18T08:49:03.325Z,12.00
2023-02-18T08:51:31.209Z,12.05
2023-02-18T08:53:59.662Z,12.08
2023-02-18T08:56:27.449Z,12.09
2023-02-18T08:58:55.165Z,12.09
2023-02-18T09:01:23.157Z,12.09
2023-02-18T09:03:51.160Z,12.10
2023-02-18T09:06:19.005Z,12.09
2023-02-18T09:08:46.887Z,12.06
2023-02-18T09:11:14.796Z,12.08
2023-02-18T09:13:42.590Z,12.13
2023-02-18T09:16:15.907Z,12.12
2023-02-18T09:18:43.685Z,12.17
2023-02-18T09:21:13.167Z,12.24
2023-02-18T09:23:41.305Z,12.28
2023-02-18T09:26:10.912Z,12.32
2023-02-18T09:28:38.804Z,12.37
2023-02-18T09:31:09.049Z,12.42
2023-02-18T09:33:38.506Z,12.47
2023-02-18T09:36:06.575Z,12.49
2023-02-18T09:38:34.506Z,12.55
2023-02-18T09:41:04.291Z,12.64
2023-02-18T09:43:37.866Z,12.73
2023-02-18T09:46:06.250Z,12.81
2023-02-18T09:48:35.193Z,12.88
2023-02-18T09:51:03.045Z,12.99
2023-02-18T09:53:30.865Z,13.06
2023-02-18T09:55:59.008Z,13.10
2023-02-18T09:58:32.023Z,13.15
2023-02-18T10:01:25.458Z,13.22
2023-02-18T10:03:55.682Z,13.20
2023-02-18T10:06:25.613Z,13.23
2023-02-18T10:08:54.309Z,13.25
2023-02-18T10:11:42.656Z,13.25
2023-02-18T10:14:14.880Z,13.29
2023-02-18T10:16:43.958Z,13.38
2023-02-18T10:19:31.787Z,13.41
2023-02-18T10:21:59.603Z,13.43
2023-02-18T10:24:31.396Z,13.46
2023-02-18T10:26:59.304Z,13.54
2023-02-18T10:29:27.299Z,13.55
2023-02-18T10:32:01.476Z,13.57
2023-02-18T10:34:32.570Z,13.53
2023-02-18T10:37:06.377Z,13.57
2023-02-18T10:39:43.049Z,13.54
2023-02-18T10:42:16.765Z,13.58
2023-02-18T10:45:07.480Z,13.59
2023-02-18T10:47:56.126Z,13.56
2023-02-18T10:50:30.014Z,13.56
2023-02-18T10:52:58.998Z,13.54
2023-02-18T10:55:57.815Z,13.54
2023-02-18T10:58:34.490Z,13.44
2023-02-18T11:01:13.997Z,13.47
2023-02-18T11:03:43.517Z,13.51
2023-02-18T11:06:18.870Z,13.52
2023-02-18T11:08:46.692Z,13.65
2023-02-18T11:11:28.489Z,13.70
2023-02-18T11:13:57.710Z,13.78
2023-02-18T11:16:26.055Z,13.88
2023-02-18T11:18:53.901Z,13.84
2023-02-18T11:21:38.638Z,13.81
2023-02-18T11:24:16.977Z,13.79
2023-02-18T11:26:47.462Z,13.84
2023-02-18T11:29:18.233Z,13.90
2023-02-18T11:31:48.023Z,13.83
2023-02-18T11:34:23.900Z,13.81
2023-02-18T11:36:51.766Z,13.94
2023-02-18T11:39:23.661Z,14.01
2023-02-18T11:42:01.164Z,14.12
2023-02-18T11:44:30.399Z,14.27
2023-02-18T11:47:00.171Z,14.36
2023-02-18T11:49:28.250Z,14.36
2023-02-18T11:51:56.072Z,14.39
2023-02-18T11:54:28.890Z,14.30
2023-02-18T11:56:59.144Z,14.30
2023-02-18T11:59:27.000Z,14.40
2023-02-18T12:02:11.989Z,14.52
2023-02-18T12:04:54.209Z,14.59
2023-02-18T12:07:26.493Z,14.59
2023-02-18T12:09:57.238Z,14.66
2023-02-18T12:13:03.463Z,14.66
2023-02-18T12:15:47.858Z,14.75
2023-02-18T12:18:42.826Z,14.74
2023-02-18T12:21:31.786Z,14.64
2023-02-18T12:24:36.375Z,14.51
2023-02-18T12:27:11.177Z,14.48
2023-02-18T12:30:03.128Z,14.47
2023-02-18T12:32:45.835Z,14.43
2023-02-18T12:35:16.602Z,14.56
2023-02-18T12:38:16.610Z,14.52
2023-02-18T12:41:02.626Z,14.60
2023-02-18T12:43:42.178Z,14.55
2023-02-18T12:46:33.567Z,14.46
2023-02-18T12:49:34.071Z,14.54
2023-02-18T12:52:33.343Z,14.65
2023-02-18T12:55:29.026Z,14.74
2023-02-18T12:58:18.599Z,14.83
2023-02-18T13:01:17.436Z,15.05
2023-02-18T13:04:03.271Z,15.21
2023-02-18T13:06:49.434Z,15.27
2023-02-18T13:09:25.434Z,15.35
2023-02-18T13:12:05.863Z,15.37
2023-02-18T13:14:36.222Z,15.46
2023-02-18T13:17:04.159Z,15.57
2023-02-18T13:19:40.349Z,15.63
2023-02-18T13:22:08.262Z,15.68
2023-02-18T13:24:37.679Z,15.85
2023-02-18T13:27:38.249Z,16.07
2023-02-18T13:30:25.397Z,16.28
2023-02-18T13:33:02.508Z,16.30
2023-02-18T13:35:44.567Z,16.33
2023-02-18T13:38:19.668Z,16.32
2023-02-18T13:40:47.567Z,16.30
2023-02-18T13:43:28.460Z,16.44
2023-02-18T13:46:20.055Z,16.66
2023-02-18T13:48:52.858Z,16.76
2023-02-18T13:51:34.432Z,16.75
2023-02-18T13:54:18.510Z,16.89
2023-02-18T13:56:48.164Z,16.99
2023-02-18T13:59:30.713Z,17.07
2023-02-18T14:01:58.553Z,17.10
2023-02-18T14:04:44.556Z,17.02
2023-02-18T14:07:26.690Z,17.07
2023-02-18T14:09:58.905Z,16.98
2023-02-18T14:12:28.098Z,17.01
2023-02-18T14:14:55.942Z,17.02
2023-02-18T14:17:23.723Z,17.03
2023-02-18T14:20:14.876Z,17.03
2023-02-18T14:22:46.543Z,17.05
2023-02-18T14:25:21.544Z,17.04
2023-02-18T14:27:53.170Z,17.06
2023-02-18T14:30:23.904Z,17.02
2023-02-18T14:32:53.045Z,16.96
2023-02-18T14:35:23.224Z,16.97
2023-02-18T14:38:02.823Z,17.00
2023-02-18T14:40:57.937Z,17.03
2023-02-18T14:43:29.565Z,16.93
2023-02-18T14:46:34.656Z,16.76
2023-02-18T14:49:11.686Z,16.68
2023-02-18T14:51:40.958Z,16.58
2023-02-18T14:54:15.651Z,16.45
2023-02-18T14:56:58.112Z,16.32
2023-02-18T14:59:28.211Z,16.16
2023-02-18T15:01:59.274Z,16.00
2023-02-18T15:04:27.440Z,15.85
2023-02-18T15:07:03.044Z,15.73
2023-02-18T15:09:31.072Z,15.66
2023-02-18T15:12:05.802Z,15.49
2023-02-18T15:14:36.261Z,15.42
2023-02-18T15:17:06.393Z,15.30
2023-02-18T15:19:50.775Z,15.24
2023-02-18T15:22:20.618Z,15.13
2023-02-18T15:24:48.556Z,15.07
2023-02-18T15:27:33.195Z,14.99
2023-02-18T15:30:11.828Z,14.89
2023-02-18T15:32:39.759Z,14.82
2023-02-18T15:35:17.038Z,14.77
2023-02-18T15:37:48.962Z,14.70
2023-02-18T15:40:17.646Z,14.64
2023-02-18T15:42:47.686Z,14.55
2023-02-18T15:45:40.791Z,14.45
2023-02-18T15:48:08.621Z,14.38
2023-02-18T15:50:37.765Z,14.32
2023-02-18T15:53:07.799Z,14.24
2023-02-18T15:55:38.407Z,14.18
2023-02-18T15:58:11.992Z,14.14
2023-02-18T16:00:48.805Z,14.09
2023-02-18T16:03:19.804Z,14.01
2023-02-18T16:05:47.781Z,13.98
2023-02-18T16:08:25.826Z,13.93
2023-02-18T16:11:05.016Z,13.89
2023-02-18T16:13:32.939Z,13.84
2023-02-18T16:16:01.398Z,13.74
2023-02-18T16:18:40.328Z,13.64
2023-02-18T16:21:23.025Z,13.56
2023-02-18T16:24:01.261Z,13.51
2023-02-18T16:26:39.214Z,13.45
2023-02-18T16:29:24.304Z,13.39
2023-02-18T16:31:52.136Z,13.30
2023-02-18T16:34:20.037Z,13.25
2023-02-18T16:37:06.299Z,13.17
2023-02-18T16:39:35.114Z,13.12
2023-02-18T16:42:03.075Z,13.05
2023-02-18T16:44:30.882Z,13.02
2023-02-18T16:46:58.649Z,12.98
2023-02-18T16:49:26.460Z,12.95
2023-02-18T16:51:54.287Z,12.90
2023-02-18T16:54:22.091Z,12.88
2023-02-18T16:56:50.059Z,12.83
2023-02-18T16:59:17.971Z,12.75
2023-02-18T17:01:46.001Z,12.70
2023-02-18T17:04:15.509Z,12.69
2023-02-18T17:06:44.019Z,12.67
2023-02-18T17:09:27.136Z,12.61
2023-02-18T17:11:55.909Z,12.55
2023-02-18T17:14:23.995Z,12.48
2023-02-18T17:16:53.274Z,12.41
2023-02-18T17:19:21.210Z,12.39
2023-02-18T17:21:49.185Z,12.36
2023-02-18T17:24:18.451Z,12.32
2023-02-18T17:26:46.415Z,12.28
2023-02-18T17:29:14.980Z,12.26
2023-02-18T17:31:48.339Z,12.26
2023-02-18T17:34:19.945Z,12.24
2023-02-18T17:37:04.081Z,12.24
2023-02-18T17:39:32.520Z,12.18
2023-02-18T17:42:00.338Z,12.24
2023-02-18T17:44:30.182Z,12.19
2023-02-18T17:46:58.148Z,12.15
2023-02-18T17:49:26.431Z,12.10
2023-02-18T17:51:55.472Z,12.05
2023-02-18T17:54:28.063Z,12.02
2023-02-18T17:56:56.857Z,11.97
2023-02-18T17:59:24.719Z,11.95
2023-02-18T18:01:52.692Z,11.92
2023-02-18T18:04:20.643Z,11.91
2023-02-18T18:06:48.559Z,11.88
2023-02-18T18:09:16.382Z,11.88
2023-02-18T18:11:44.303Z,11.87
2023-02-18T18:14:14.693Z,11.87
2023-02-18T18:16:42.449Z,11.85
2023-02-18T18:19:10.242Z,11.84
2023-02-18T18:21:38.105Z,11.83
2023-02-18T18:24:06.149Z,11.80
2023-02-18T18:26:33.904Z,11.77
2023-02-18T18:29:01.668Z,11.75
2023-02-18T18:31:29.577Z,11.73
2023-02-18T18:33:58.417Z,11.68
2023-02-18T18:36:26.503Z,11.65
2023-02-18T18:38:54.457Z,11.64
2023-02-18T18:41:23.267Z,11.58
2023-02-18T18:43:51.255Z,11.55
2023-02-18T18:46:19.390Z,11.52
2023-02-18T18:48:47.290Z,11.52
2023-02-18T18:51:32.249Z,11.48
2023-02-18T18:54:00.643Z,11.46
2023-02-18T18:56:28.741Z,11.43
2023-02-18T18:58:56.828Z,11.41
2023-02-18T19:01:28.194Z,11.41
2023-02-18T19:03:56.486Z,11.37
2023-02-18T19:06:24.471Z,11.37
2023-02-18T19:08:52.310Z,11.30
2023-02-18T19:11:20.363Z,11.28
2023-02-18T19:13:48.368Z,11.27
2023-02-18T19:16:37.580Z,11.27
2023-02-18T19:19:05.460Z,11.23
2023-02-18T19:21:34.584Z,11.17
2023-02-18T19:24:02.663Z,11.14
2023-02-18T19:26:30.816Z,11.13
2023-02-18T19:28:58.714Z,11.14
2023-02-18T19:31:27.414Z,11.13
2023-02-18T19:33:55.567Z,11.13
2023-02-18T19:36:23.307Z,11.15
2023-02-18T19:38:56.819Z,11.16
2023-02-18T19:41:24.925Z,11.16
2023-02-18T19:43:52.845Z,11.12
2023-02-18T19:46:20.851Z,11.10
2023-02-18T19:48:50.685Z,11.08
2023-02-18T19:51:18.572Z,11.08
2023-02-18T19:53:47.348Z,11.07
2023-02-18T19:56:22.446Z,11.06
2023-02-18T19:58:50.220Z,11.04
2023-02-18T20:01:18.766Z,11.04
2023-02-18T20:03:46.619Z,11.04
2023-02-18T20:06:21.465Z,11.04
2023-02-18T20:08:49.422Z,11.07
2023-02-18T20:11:17.376Z,11.06
2023-02-18T20:13:45.213Z,11.06
2023-02-18T20:16:13.675Z,11.08
2023-02-18T20:18:41.549Z,11.06
2023-02-18T20:21:12.039Z,11.08
2023-02-18T20:23:40.406Z,11.07
2023-02-18T20:26:12.213Z,11.05
2023-02-18T20:28:40.162Z,11.06
2023-02-18T20:31:09.399Z,11.03
2023-02-18T20:33:37.954Z,11.01
2023-02-18T20:36:08.473Z,10.99
2023-02-18T20:38:39.836Z,10.97
2023-02-18T20:41:12.882Z,10.99
2023-02-18T20:43:40.976Z,10.96
2023-02-18T20:46:10.122Z,10.94
2023-02-18T20:48:38.027Z,10.94
2023-02-18T20:51:06.778Z,10.93
2023-02-18T20:53:34.896Z,10.92
2023-02-18T20:56:02.649Z,10.90
2023-02-18T20:58:30.483Z,10.92
2023-02-18T21:00:59.105Z,10.89
2023-02-18T21:03:26.804Z,10.88
2023-02-18T21:06:05.583Z,10.87
2023-02-18T21:08:33.434Z,10.82
2023-02-18T21:11:10.146Z,10.81
2023-02-18T21:13:38.319Z,10.77
2023-02-18T21:16:07.118Z,10.71
2023-02-18T21:18:34.898Z,10.72
2023-02-18T21:21:03.850Z,10.69
2023-02-18T21:23:31.857Z,10.69
2023-02-18T21:26:16.393Z,10.67
2023-02-18T21:28:44.611Z,10.66
2023-02-18T21:31:21.068Z,10.66
2023-02-18T21:33:49.004Z,10.64
2023-02-18T21:36:17.052Z,10.61
2023-02-18T21:38:46.149Z,10.61
2023-02-18T21:41:14.527Z,10.57
2023-02-18T21:43:43.464Z,10.55
2023-02-18T21:46:14.893Z,10.50
2023-02-18T21:49:01.406Z,10.47
2023-02-18T21:51:55.842Z,10.45
2023-02-18T21:54:43.288Z,10.39
2023-02-18T21:57:19.097Z,10.32
2023-02-18T21:59:47.216Z,10.29
2023-02-18T22:02:19.404Z,10.24
2023-02-18T22:04:47.816Z,10.23
2023-02-18T22:07:15.899Z,10.20
2023-02-18T22:09:44.587Z,10.18
2023-02-18T22:12:13.360Z,10.17
2023-02-18T22:14:41.342Z,10.13
2023-02-18T22:17:09.415Z,10.10
2023-02-18T22:19:37.515Z,10.08
2023-02-18T22:22:05.472Z,10.06
2023-02-18T22:24:33.605Z,10.04
2023-02-18T22:27:04.534Z,10.00
2023-02-18T22:29:32.856Z,9.98
2023-02-18T22:32:01.116Z,9.98
2023-02-18T22:34:28.984Z,9.97
2023-02-18T22:36:56.783Z,9.93
2023-02-18T22:39:25.538Z,9.88
2023-02-18T22:41:53.384Z,9.86
2023-02-18T22:44:21.689Z,9.82
2023-02-18T22:46:49.677Z,9.81
2023-02-18T22:49:17.612Z,9.77
2023-02-18T22:51:45.728Z,9.73
2023-02-18T22:54:17.240Z,9.70
2023-02-18T22:56:45.937Z,9.67
2023-02-18T22:59:14.485Z,9.62
2023-02-18T23:01:43.575Z,9.58
2023-02-18T23:04:12.995Z,9.52
2023-02-18T23:06:42.125Z,9.51
2023-02-18T23:09:10.686Z,9.49
2023-02-18T23:11:38.612Z,9.46
2023-02-18T23:14:22.551Z,9.43
2023-02-18T23:17:10.143Z,9.38
2023-02-18T23:19:38.375Z,9.36
2023-02-18T23:22:06.488Z,9.38
2023-02-18T23:24:36.042Z,9.39
2023-02-18T23:27:04.314Z,9.42
2023-02-18T23:29:32.177Z,9.45
2023-02-18T23:32:00.074Z,9.38
2023-02-18T23:34:28.039Z,9.33
2023-02-18T23:36:55.958Z,9.33
2023-02-18T23:39:23.903Z,9.33
2023-02-18T23:41:52.529Z,9.32
2023-02-18T23:44:21.988Z,9.35
2023-02-18T23:46:50.084Z,9.37
2023-02-18T23:49:24.641Z,9.43
2023-02-18T23:51:53.246Z,9.46
2023-02-18T23:54:21.629Z,9.49
2023-02-18T23:56:49.591Z,9.48
2023-02-18T23:59:17.461Z,9.50
